Time;durP1;ratioP1;P1;durP2;ratioP2;P2;SDS_P1;SDS_P2;PMS_P1;PMS_P2;Temp;Humidity;BMP_temperature;BMP_pressure;BME280_temperature;BME280_humidity;BME280_pressure;Samples;Min_cycle;Max_cycle;Signal;HPM_P1;HPM_P2
2022/03/27 00:02:16;;;;;;;12.75;5.35;;;;;;;;;;5010510;28;20050;-83
2022/03/27 00:04:58;;;;;;;17.65;5.47;;;;;;;;;;4971408;28;20164;-85
2022/03/27 00:07:26;;;;;;;13.45;5.35;;;;;;;;;;5016406;28;20040;-75
2022/03/27 00:09:54;;;;;;;13.02;5.72;;;;;;;;;;5000111;28;20041;-75
2022/03/27 00:12:23;;;;;;;13.43;6.00;;;;;;;;;;4983674;28;20092;-76
2022/03/27 00:14:52;;;;;;;12.68;6.25;;;;;;;;;;5005434;28;20471;-75
2022/03/27 00:17:20;;;;;;;15.13;5.47;;;;;;;;;;5006665;28;20044;-75
2022/03/27 00:19:49;;;;;;;14.77;5.80;;;;;;;;;;4998411;28;20050;-75
2022/03/27 00:22:16;;;;;;;15.13;6.45;;;;;;;;;;4996974;28;20496;-77
2022/03/27 00:24:44;;;;;;;18.90;6.00;;;;;;;;;;4996374;28;20133;-77
2022/03/27 00:27:12;;;;;;;16.23;6.38;;;;;;;;;;5008473;28;20129;-75
2022/03/27 00:29:40;;;;;;;14.27;6.03;;;;;;;;;;4999324;28;20053;-77
2022/03/27 00:32:11;;;;;;;17.02;6.50;;;;;;;;;;4989500;28;20057;-76
2022/03/27 00:34:38;;;;;;;13.23;6.15;;;;;;;;;;5010839;28;20042;-82
2022/03/27 00:37:06;;;;;;;12.30;5.85;;;;;;;;;;4977947;28;20042;-80
2022/03/27 00:39:34;;;;;;;13.93;7.20;;;;;;;;;;5000548;28;20057;-82
2022/03/27 00:42:05;;;;;;;16.25;6.22;;;;;;;;;;4976074;28;20949;-81
2022/03/27 00:44:32;;;;;;;12.68;6.45;;;;;;;;;;5010789;28;20064;-81
2022/03/27 00:47:01;;;;;;;15.02;7.35;;;;;;;;;;5010865;28;20041;-81
2022/03/27 00:49:34;;;;;;;23.45;7.85;;;;;;;;;;4987439;28;20050;-82
2022/03/27 00:52:03;;;;;;;15.70;7.53;;;;;;;;;;4993151;28;20056;-81
2022/03/27 00:54:30;;;;;;;17.13;7.13;;;;;;;;;;5010480;28;20050;-82
2022/03/27 00:57:00;;;;;;;18.65;7.43;;;;;;;;;;5011475;28;20050;-81
2022/03/27 00:59:38;;;;;;;17.00;7.18;;;;;;;;;;5007843;28;20046;-80
2022/03/27 01:02:06;;;;;;;15.75;6.57;;;;;;;;;;5017280;28;20037;-84
2022/03/27 01:04:34;;;;;;;16.27;6.82;;;;;;;;;;5013210;28;20042;-82
2022/03/27 01:07:20;;;;;;;15.50;6.25;;;;;;;;;;4984276;28;20037;-82
2022/03/27 01:09:48;;;;;;;13.25;6.32;;;;;;;;;;5002222;28;20042;-81
2022/03/27 01:12:22;;;;;;;16.80;7.63;;;;;;;;;;5009807;28;20471;-84
2022/03/27 01:14:52;;;;;;;16.30;6.53;;;;;;;;;;5023004;28;20111;-82
2022/03/27 01:17:34;;;;;;;13.77;7.05;;;;;;;;;;5014958;28;20075;-82
2022/03/27 01:20:42;;;;;;;14.05;6.50;;;;;;;;;;5012957;28;20053;-85
2022/03/27 01:23:44;;;;;;;18.65;7.43;;;;;;;;;;4984599;28;20066;-83
2022/03/27 01:26:26;;;;;;;12.23;5.55;;;;;;;;;;5002953;28;20054;-85
2022/03/27 01:29:23;;;;;;;13.13;5.60;;;;;;;;;;4995953;28;20137;-83
2022/03/27 01:32:44;;;;;;;14.88;5.80;;;;;;;;;;5011985;28;20042;-83
2022/03/27 01:35:48;;;;;;;15.57;6.80;;;;;;;;;;5009775;28;20059;-85
2022/03/27 01:38:52;;;;;;;17.63;6.20;;;;;;;;;;4992148;28;20513;-85
2022/03/27 01:41:20;;;;;;;15.60;5.97;;;;;;;;;;4983513;28;20049;-84
2022/03/27 01:44:05;;;;;;;15.77;7.25;;;;;;;;;;4965642;28;20056;-85
2022/03/27 01:46:37;;;;;;;17.10;6.47;;;;;;;;;;4987087;28;20050;-85
2022/03/27 01:49:10;;;;;;;19.95;5.80;;;;;;;;;;5015783;28;20057;-85
2022/03/27 01:51:41;;;;;;;14.63;6.00;;;;;;;;;;4991445;28;20056;-75
2022/03/27 01:54:09;;;;;;;15.07;6.55;;;;;;;;;;5008997;28;20073;-78
2022/03/27 01:57:17;;;;;;;18.40;6.53;;;;;;;;;;4996284;28;20531;-87
2022/03/27 02:24:37;;;;;;;12.45;5.53;;;;;;;;;;4786364;29;20138;-87
2022/03/27 02:38:47;;;;;;;16.65;5.95;;;;;;;;;;4697466;30;20053;-85
2022/03/27 02:43:20;;;;;;;19.27;5.15;;;;;;;;;;4677427;30;20086;-87
2022/03/27 02:48:20;;;;;;;19.98;5.45;;;;;;;;;;4660173;30;20540;-85
2022/03/27 02:56:32;;;;;;;19.98;5.55;;;;;;;;;;4710871;30;20507;-75
2022/03/27 02:59:00;;;;;;;22.83;5.75;;;;;;;;;;4708771;30;20061;-76
2022/03/27 03:01:32;;;;;;;20.40;5.90;;;;;;;;;;4707675;30;20080;-77
2022/03/27 03:04:51;;;;;;;30.08;6.07;;;;;;;;;;4725135;30;20065;-85
2022/03/27 03:09:33;;;;;;;24.05;7.30;;;;;;;;;;4692922;30;20756;-87
2022/03/27 03:17:45;;;;;;;16.15;5.80;;;;;;;;;;4775021;29;20064;-86
2022/03/27 03:20:58;;;;;;;27.77;6.40;;;;;;;;;;4770457;29;20055;-79
2022/03/27 03:23:28;;;;;;;23.50;6.20;;;;;;;;;;4802150;29;20062;-77
2022/03/27 03:30:50;;;;;;;21.02;5.82;;;;;;;;;;4832924;29;20051;-87
2022/03/27 03:35:22;;;;;;;22.95;6.85;;;;;;;;;;4840033;29;20174;-85
2022/03/27 03:40:02;;;;;;;22.63;7.07;;;;;;;;;;4852304;29;20049;-85
2022/03/27 03:44:30;;;;;;;27.98;7.90;;;;;;;;;;4840199;29;20068;-85
2022/03/27 03:48:24;;;;;;;23.63;7.78;;;;;;;;;;4852321;29;20057;-78
2022/03/27 03:50:53;;;;;;;22.25;7.35;;;;;;;;;;4853064;29;20164;-78
2022/03/27 03:54:10;;;;;;;12.13;6.07;;;;;;;;;;4855103;29;20057;-84
2022/03/27 03:58:49;;;;;;;15.88;6.13;;;;;;;;;;4811855;29;21003;-87
2022/03/27 04:03:35;;;;;;;21.63;6.88;;;;;;;;;;4764557;30;20046;-85
2022/03/27 04:08:14;;;;;;;17.58;6.72;;;;;;;;;;4688846;30;20080;-84
2022/03/27 04:17:11;;;;;;;14.00;5.93;;;;;;;;;;4693593;30;20521;-84
2022/03/27 04:21:24;;;;;;;19.35;6.40;;;;;;;;;;4696195;30;20137;-87
2022/03/27 04:26:31;;;;;;;18.08;6.78;;;;;;;;;;4693524;30;20393;-85
2022/03/27 04:31:08;;;;;;;16.20;6.20;;;;;;;;;;4641797;30;20133;-85
2022/03/27 04:35:56;;;;;;;21.00;5.88;;;;;;;;;;4632745;30;20055;-88
2022/03/27 04:40:02;;;;;;;;;;;;;;;;;;4651637;30;20057;-87
2022/03/27 04:44:38;;;;;;;16.05;6.18;;;;;;;;;;4639990;30;19996;-84
2022/03/27 04:48:25;;;;;;;13.38;5.15;;;;;;;;;;4669857;30;20141;-78
2022/03/27 04:50:53;;;;;;;16.30;6.68;;;;;;;;;;4667878;30;20065;-78
2022/03/27 04:54:01;;;;;;;17.35;6.28;;;;;;;;;;4670447;30;20148;-87
2022/03/27 04:58:30;;;;;;;12.98;5.80;;;;;;;;;;4656295;30;20941;-87
2022/03/27 05:03:15;;;;;;;16.40;5.47;;;;;;;;;;4696719;30;20123;-87
2022/03/27 05:07:58;;;;;;;14.90;4.97;;;;;;;;;;4661839;30;20066;-84
2022/03/27 05:10:47;;;;;;;12.15;5.32;;;;;;;;;;4652435;30;20055;-76
2022/03/27 05:13:14;;;;;;;18.10;6.10;;;;;;;;;;4660768;30;20085;-75
2022/03/27 05:15:43;;;;;;;12.57;5.57;;;;;;;;;;4672546;30;20054;-76
2022/03/27 05:18:10;;;;;;;13.98;5.30;;;;;;;;;;4678631;30;20064;-79
2022/03/27 05:20:40;;;;;;;13.98;5.63;;;;;;;;;;4695362;30;20218;-75
2022/03/27 05:23:09;;;;;;;10.00;5.05;;;;;;;;;;4694238;30;20233;-76
2022/03/27 05:25:41;;;;;;;11.68;5.57;;;;;;;;;;4700774;30;20058;-78
2022/03/27 05:28:11;;;;;;;12.63;5.45;;;;;;;;;;4748071;29;20561;-78
2022/03/27 05:30:38;;;;;;;14.18;4.40;;;;;;;;;;4806430;29;20108;-76
2022/03/27 05:33:06;;;;;;;15.25;5.35;;;;;;;;;;4824916;29;20073;-75
2022/03/27 05:35:34;;;;;;;13.38;4.55;;;;;;;;;;4824351;29;20061;-75
2022/03/27 05:38:09;;;;;;;13.23;4.78;;;;;;;;;;4824514;29;20531;-77
2022/03/27 05:40:40;;;;;;;15.65;4.57;;;;;;;;;;4829497;29;20488;-78
2022/03/27 05:43:08;;;;;;;13.35;5.82;;;;;;;;;;4875877;29;20079;-78
2022/03/27 05:45:36;;;;;;;10.75;4.82;;;;;;;;;;4912453;29;20055;-80
2022/03/27 05:48:05;;;;;;;9.10;4.95;;;;;;;;;;4927138;28;20964;-76
2022/03/27 05:50:32;;;;;;;22.38;5.60;;;;;;;;;;4992952;28;20050;-77
2022/03/27 05:53:03;;;;;;;15.85;5.50;;;;;;;;;;5006133;28;20066;-76
2022/03/27 05:55:30;;;;;;;7.72;4.90;;;;;;;;;;5007019;28;20076;-76
2022/03/27 05:58:00;;;;;;;21.63;5.63;;;;;;;;;;4995615;28;20495;-76
2022/03/27 06:00:28;;;;;;;20.17;5.32;;;;;;;;;;5010143;28;20061;-76
2022/03/27 06:03:01;;;;;;;8.85;4.97;;;;;;;;;;5012619;28;20042;-76
2022/03/27 06:05:28;;;;;;;18.33;6.15;;;;;;;;;;4996784;28;20124;-76
2022/03/27 06:07:58;;;;;;;18.20;5.20;;;;;;;;;;4996515;28;20133;-77
2022/03/27 06:10:31;;;;;;;9.82;5.40;;;;;;;;;;5010407;28;20046;-77
2022/03/27 06:12:59;;;;;;;11.40;5.75;;;;;;;;;;5008963;28;20108;-76
2022/03/27 06:15:32;;;;;;;17.80;5.75;;;;;;;;;;5007078;28;20125;-77
2022/03/27 06:18:00;;;;;;;9.45;5.60;;;;;;;;;;4999764;28;20038;-77
2022/03/27 06:20:30;;;;;;;9.95;5.70;;;;;;;;;;5008052;28;20054;-76
2022/03/27 06:23:01;;;;;;;14.77;5.75;;;;;;;;;;4998325;28;20048;-77
2022/03/27 06:25:29;;;;;;;14.88;5.75;;;;;;;;;;4997681;28;20081;-78
2022/03/27 06:28:05;;;;;;;14.57;5.88;;;;;;;;;;5009733;28;20033;-76
2022/03/27 06:30:34;;;;;;;12.85;6.32;;;;;;;;;;4998273;28;20486;-77
2022/03/27 06:33:02;;;;;;;14.82;6.18;;;;;;;;;;5005954;28;20042;-77
2022/03/27 06:35:30;;;;;;;15.07;5.85;;;;;;;;;;4997366;28;20489;-76
2022/03/27 06:37:58;;;;;;;13.88;5.97;;;;;;;;;;5007715;28;20038;-75
2022/03/27 06:40:26;;;;;;;15.48;6.03;;;;;;;;;;5008126;28;20045;-76
2022/03/27 06:42:57;;;;;;;13.52;6.35;;;;;;;;;;5012238;28;20117;-77
2022/03/27 06:45:26;;;;;;;19.08;6.78;;;;;;;;;;5006511;28;20381;-78
2022/03/27 06:47:54;;;;;;;17.67;7.15;;;;;;;;;;5007451;28;20134;-76
2022/03/27 06:50:23;;;;;;;19.35;6.63;;;;;;;;;;5009792;28;20049;-76
2022/03/27 06:52:52;;;;;;;16.80;7.18;;;;;;;;;;5006801;28;20842;-76
2022/03/27 06:55:21;;;;;;;18.92;6.82;;;;;;;;;;5014257;28;20046;-76
2022/03/27 06:57:48;;;;;;;20.67;7.38;;;;;;;;;;5009793;28;20765;-76
2022/03/27 07:03:06;;;;;;;16.42;7.20;;;;;;;;;;5011732;28;20042;-76
2022/03/27 07:05:41;;;;;;;15.68;7.40;;;;;;;;;;5009996;28;20141;-76
2022/03/27 07:08:20;;;;;;;19.83;7.38;;;;;;;;;;5012748;28;20044;-76
2022/03/27 07:10:49;;;;;;;20.65;7.68;;;;;;;;;;5000701;28;20042;-76
2022/03/27 07:13:19;;;;;;;20.27;8.70;;;;;;;;;;5011482;28;20121;-77
2022/03/27 07:15:47;;;;;;;16.98;7.65;;;;;;;;;;5010108;28;20049;-78
2022/03/27 07:18:18;;;;;;;16.65;7.60;;;;;;;;;;5012186;28;20042;-77
2022/03/27 07:20:47;;;;;;;19.17;7.57;;;;;;;;;;5018712;28;20049;-78
2022/03/27 07:23:17;;;;;;;18.95;7.55;;;;;;;;;;5014193;28;20048;-78
2022/03/27 07:25:47;;;;;;;16.70;7.03;;;;;;;;;;5015600;28;20038;-78
2022/03/27 07:28:20;;;;;;;25.77;7.95;;;;;;;;;;4994337;28;20069;-77
2022/03/27 07:30:50;;;;;;;20.30;7.45;;;;;;;;;;5009632;28;20061;-76
2022/03/27 07:33:19;;;;;;;21.02;7.50;;;;;;;;;;4997132;28;20062;-78
2022/03/27 07:35:46;;;;;;;20.15;7.25;;;;;;;;;;5009067;28;20145;-79
2022/03/27 07:38:15;;;;;;;27.42;7.68;;;;;;;;;;5010940;28;20079;-78
2022/03/27 07:40:43;;;;;;;21.20;7.30;;;;;;;;;;4991503;28;20076;-79
2022/03/27 07:43:11;;;;;;;24.55;7.53;;;;;;;;;;5011840;28;20103;-77
2022/03/27 07:45:40;;;;;;;24.63;7.35;;;;;;;;;;5007439;28;20050;-77
2022/03/27 07:48:08;;;;;;;19.95;7.18;;;;;;;;;;5011800;28;20125;-77
2022/03/27 07:50:36;;;;;;;23.17;7.93;;;;;;;;;;5014553;28;20042;-77
2022/03/27 07:53:05;;;;;;;23.92;7.65;;;;;;;;;;5007915;28;20547;-79
2022/03/27 07:55:32;;;;;;;23.63;7.85;;;;;;;;;;5010315;28;20045;-78
2022/03/27 07:58:01;;;;;;;24.13;7.55;;;;;;;;;;5011905;28;20049;-79
2022/03/27 08:00:28;;;;;;;22.63;7.97;;;;;;;;;;5010015;28;20078;-77
2022/03/27 08:02:57;;;;;;;17.40;7.43;;;;;;;;;;4990576;28;20046;-77
2022/03/27 08:05:27;;;;;;;23.30;7.47;;;;;;;;;;5007314;28;20041;-75
2022/03/27 08:07:54;;;;;;;24.45;7.28;;;;;;;;;;5009119;28;20093;-77
2022/03/27 08:10:22;;;;;;;29.75;9.10;;;;;;;;;;4992043;28;20041;-77
2022/03/27 08:12:51;;;;;;;32.97;9.13;;;;;;;;;;5007439;28;20100;-76
2022/03/27 08:15:19;;;;;;;24.42;8.57;;;;;;;;;;5007662;28;20068;-76
2022/03/27 08:17:53;;;;;;;26.67;9.45;;;;;;;;;;4997998;28;20104;-76
2022/03/27 08:20:24;;;;;;;34.03;9.38;;;;;;;;;;5008736;28;20046;-78
2022/03/27 08:22:56;;;;;;;21.38;8.43;;;;;;;;;;4996220;28;20022;-76
2022/03/27 08:28:11;;;;;;;31.85;8.32;;;;;;;;;;5009451;28;20042;-77
2022/03/27 08:30:40;;;;;;;30.80;8.93;;;;;;;;;;5006095;28;20353;-77
2022/03/27 08:33:09;;;;;;;36.47;9.07;;;;;;;;;;5007620;28;20046;-76
2022/03/27 08:35:41;;;;;;;30.23;8.98;;;;;;;;;;5007664;28;20471;-77
2022/03/27 08:38:10;;;;;;;32.40;9.15;;;;;;;;;;5008812;28;20054;-75
2022/03/27 08:40:42;;;;;;;21.73;8.90;;;;;;;;;;5008441;28;20434;-77
2022/03/27 08:43:15;;;;;;;33.47;9.23;;;;;;;;;;4997198;28;20053;-76
2022/03/27 08:45:44;;;;;;;25.65;9.93;;;;;;;;;;5007919;28;20034;-76
2022/03/27 08:48:13;;;;;;;33.80;10.25;;;;;;;;;;5010204;28;20565;-76
2022/03/27 08:50:51;;;;;;;26.10;9.18;;;;;;;;;;4991887;28;20391;-75
2022/03/27 08:53:28;;;;;;;28.00;9.73;;;;;;;;;;4991348;28;20076;-78
2022/03/27 08:56:06;;;;;;;28.40;8.80;;;;;;;;;;5009906;28;20058;-76
2022/03/27 08:58:37;;;;;;;25.52;9.35;;;;;;;;;;5013196;28;20101;-77
2022/03/27 09:01:05;;;;;;;25.70;9.95;;;;;;;;;;4991535;28;20042;-77
2022/03/27 09:03:33;;;;;;;25.25;9.25;;;;;;;;;;4979661;28;20050;-76
2022/03/27 09:06:04;;;;;;;30.58;8.63;;;;;;;;;;5008500;28;20041;-77
2022/03/27 09:08:37;;;;;;;21.30;8.63;;;;;;;;;;5011584;28;20413;-76
2022/03/27 09:11:05;;;;;;;32.83;9.15;;;;;;;;;;5008082;28;20051;-76
2022/03/27 09:13:39;;;;;;;32.78;9.05;;;;;;;;;;5001026;28;20489;-79
2022/03/27 09:16:10;;;;;;;31.58;8.60;;;;;;;;;;5012520;28;20042;-79
2022/03/27 09:18:52;;;;;;;27.05;9.75;;;;;;;;;;5009292;28;20042;-79
2022/03/27 09:21:22;;;;;;;31.13;9.27;;;;;;;;;;4991799;28;20042;-79
2022/03/27 09:24:02;;;;;;;30.55;10.40;;;;;;;;;;5017362;28;20448;-79
2022/03/27 09:26:32;;;;;;;27.90;10.55;;;;;;;;;;5010988;28;20079;-78
2022/03/27 09:29:10;;;;;;;34.80;9.65;;;;;;;;;;5013838;28;20056;-78
2022/03/27 09:31:38;;;;;;;26.17;7.90;;;;;;;;;;5013806;28;20510;-78
2022/03/27 09:34:07;;;;;;;26.75;10.10;;;;;;;;;;5024617;28;20057;-78
2022/03/27 09:36:43;;;;;;;26.40;9.25;;;;;;;;;;5009748;28;20045;-78
2022/03/27 09:39:16;;;;;;;25.85;9.02;;;;;;;;;;4986011;28;20118;-79
2022/03/27 09:41:48;;;;;;;24.50;7.82;;;;;;;;;;5009829;28;20088;-79
2022/03/27 09:44:30;;;;;;;29.60;9.27;;;;;;;;;;5007759;28;20072;-79
2022/03/27 09:47:00;;;;;;;26.50;8.55;;;;;;;;;;5013352;28;20074;-79
2022/03/27 09:49:31;;;;;;;30.80;8.65;;;;;;;;;;4999096;28;20052;-80
2022/03/27 09:52:12;;;;;;;22.15;8.15;;;;;;;;;;5006889;28;20045;-81
2022/03/27 09:55:00;;;;;;;29.48;9.07;;;;;;;;;;5009164;28;20065;-80
2022/03/27 09:57:35;;;;;;;22.08;6.75;;;;;;;;;;4997130;28;20049;-80
2022/03/27 10:00:19;;;;;;;27.02;7.55;;;;;;;;;;5008497;28;20042;-78
2022/03/27 10:02:47;;;;;;;24.00;7.70;;;;;;;;;;5006605;28;20038;-78
2022/03/27 10:05:21;;;;;;;15.77;6.50;;;;;;;;;;5016147;28;20918;-81
2022/03/27 10:07:52;;;;;;;28.35;6.40;;;;;;;;;;5022776;28;20056;-78
2022/03/27 10:10:22;;;;;;;26.05;7.78;;;;;;;;;;4997120;28;20034;-80
2022/03/27 10:12:53;;;;;;;18.98;6.10;;;;;;;;;;5008530;28;20050;-79
2022/03/27 10:15:22;;;;;;;17.50;6.32;;;;;;;;;;4997553;28;20061;-78
2022/03/27 10:18:00;;;;;;;21.77;5.88;;;;;;;;;;4996221;28;20044;-76
2022/03/27 10:20:32;;;;;;;17.35;6.47;;;;;;;;;;5009808;28;20049;-77
2022/03/27 10:23:10;;;;;;;14.48;6.43;;;;;;;;;;5013602;28;20083;-77
2022/03/27 10:25:44;;;;;;;22.95;6.32;;;;;;;;;;5006717;28;20073;-77
2022/03/27 10:28:13;;;;;;;17.33;6.03;;;;;;;;;;4984415;28;20144;-78
2022/03/27 10:30:43;;;;;;;24.45;7.10;;;;;;;;;;5020416;28;20439;-77
2022/03/27 10:33:11;;;;;;;18.88;5.93;;;;;;;;;;5016723;28;20352;-78
2022/03/27 10:35:44;;;;;;;19.58;7.47;;;;;;;;;;5012710;28;20562;-78
2022/03/27 10:38:40;;;;;;;22.33;6.68;;;;;;;;;;5013388;28;20038;-78
2022/03/27 10:41:42;;;;;;;22.13;7.47;;;;;;;;;;5003056;28;20044;-78
2022/03/27 10:44:38;;;;;;;20.13;6.07;;;;;;;;;;5006974;28;20058;-81
2022/03/27 10:47:18;;;;;;;12.48;5.70;;;;;;;;;;5012363;28;20094;-80
2022/03/27 10:50:05;;;;;;;17.80;6.43;;;;;;;;;;5007587;28;20049;-79
2022/03/27 10:52:50;;;;;;;15.27;5.32;;;;;;;;;;5008445;28;20038;-81
2022/03/27 10:55:18;;;;;;;19.00;6.22;;;;;;;;;;5007459;28;20110;-79
2022/03/27 10:57:49;;;;;;;20.20;5.88;;;;;;;;;;5009846;28;20095;-79
2022/03/27 11:00:39;;;;;;;14.82;5.75;;;;;;;;;;5014219;28;20072;-81
2022/03/27 11:03:08;;;;;;;15.27;5.18;;;;;;;;;;5025398;28;20133;-79
2022/03/27 11:05:36;;;;;;;12.93;5.95;;;;;;;;;;4979741;28;20053;-79
2022/03/27 11:08:16;;;;;;;19.15;6.30;;;;;;;;;;4998070;28;20041;-80
2022/03/27 11:10:49;;;;;;;16.25;7.13;;;;;;;;;;5015366;28;20038;-79
2022/03/27 11:13:33;;;;;;;19.13;6.55;;;;;;;;;;4995431;28;20057;-78
2022/03/27 11:16:14;;;;;;;18.10;6.18;;;;;;;;;;4999556;28;20060;-77
2022/03/27 11:18:47;;;;;;;18.27;6.82;;;;;;;;;;5011499;28;20034;-77
2022/03/27 11:21:34;;;;;;;15.80;7.00;;;;;;;;;;5008920;28;20132;-79
2022/03/27 11:24:02;;;;;;;26.13;8.13;;;;;;;;;;5008745;28;20038;-77
2022/03/27 11:26:30;;;;;;;17.05;7.68;;;;;;;;;;4997573;28;20042;-77
2022/03/27 11:29:04;;;;;;;20.55;8.02;;;;;;;;;;5014002;28;20041;-79
2022/03/27 11:31:36;;;;;;;21.90;7.25;;;;;;;;;;4997654;28;20101;-80
2022/03/27 11:34:04;;;;;;;19.73;7.53;;;;;;;;;;5001932;28;20057;-79
2022/03/27 11:36:33;;;;;;;17.88;7.05;;;;;;;;;;5008294;28;20034;-79
2022/03/27 11:39:08;;;;;;;17.42;7.40;;;;;;;;;;4961893;28;20129;-80
2022/03/27 11:41:43;;;;;;;16.60;6.38;;;;;;;;;;5015063;28;20085;-76
2022/03/27 11:44:22;;;;;;;17.67;6.00;;;;;;;;;;4994737;28;20053;-77
2022/03/27 11:46:56;;;;;;;18.73;6.05;;;;;;;;;;4996942;28;20042;-77
2022/03/27 11:49:38;;;;;;;16.02;6.13;;;;;;;;;;5006747;28;20058;-80
2022/03/27 11:52:16;;;;;;;14.60;6.28;;;;;;;;;;4993178;28;20044;-80
2022/03/27 11:54:49;;;;;;;18.17;6.05;;;;;;;;;;5010000;28;20048;-80
2022/03/27 11:57:18;;;;;;;17.38;6.10;;;;;;;;;;5004164;28;20080;-79
2022/03/27 11:59:50;;;;;;;16.10;6.35;;;;;;;;;;4997045;28;20240;-78
2022/03/27 12:02:22;;;;;;;18.40;6.68;;;;;;;;;;5002704;28;20049;-78
2022/03/27 12:04:59;;;;;;;16.02;6.15;;;;;;;;;;4997005;28;20113;-76
2022/03/27 12:07:48;;;;;;;14.80;6.20;;;;;;;;;;4988644;28;20056;-78
2022/03/27 12:10:16;;;;;;;18.75;6.25;;;;;;;;;;5006948;28;20042;-78
2022/03/27 12:13:08;;;;;;;15.70;5.90;;;;;;;;;;5005998;28;20042;-79
2022/03/27 12:15:37;;;;;;;13.15;6.25;;;;;;;;;;5002527;28;20042;-77
2022/03/27 12:18:10;;;;;;;16.45;5.68;;;;;;;;;;4983024;28;20111;-79
2022/03/27 12:20:43;;;;;;;11.63;6.05;;;;;;;;;;4999862;28;20053;-77
2022/03/27 12:23:29;;;;;;;13.05;5.35;;;;;;;;;;5005401;28;20074;-77
2022/03/27 12:32:13;;;;;;;9.43;5.18;;;;;;;;;;5005542;28;20617;-79
2022/03/27 12:34:43;;;;;;;9.50;5.75;;;;;;;;;;5009072;28;20096;-81
2022/03/27 12:37:16;;;;;;;16.58;6.40;;;;;;;;;;5004668;28;20461;-80
2022/03/27 12:39:47;;;;;;;11.60;5.38;;;;;;;;;;5007345;28;20713;-79
2022/03/27 12:42:29;;;;;;;15.52;6.13;;;;;;;;;;4995001;28;20076;-77
2022/03/27 12:45:14;;;;;;;13.32;5.97;;;;;;;;;;5024100;28;20049;-80
2022/03/27 12:47:47;;;;;;;13.27;6.32;;;;;;;;;;5014509;28;20131;-79
2022/03/27 12:50:35;;;;;;;14.90;6.43;;;;;;;;;;4986121;28;20156;-79
2022/03/27 12:53:04;;;;;;;14.30;5.65;;;;;;;;;;4999784;28;20037;-80
2022/03/27 12:56:02;;;;;;;14.73;6.57;;;;;;;;;;5012175;28;20076;-77
2022/03/27 12:58:32;;;;;;;15.38;7.70;;;;;;;;;;4975956;28;20066;-78
2022/03/27 13:01:09;;;;;;;13.55;6.20;;;;;;;;;;4977949;28;20038;-77
2022/03/27 13:03:40;;;;;;;13.10;5.55;;;;;;;;;;4972565;28;20051;-83
2022/03/27 13:06:09;;;;;;;14.05;6.22;;;;;;;;;;4997394;28;20050;-78
2022/03/27 13:08:42;;;;;;;18.83;6.40;;;;;;;;;;4988481;28;20133;-79
2022/03/27 13:11:21;;;;;;;12.38;5.72;;;;;;;;;;4986463;28;20061;-80
2022/03/27 13:14:00;;;;;;;13.43;6.60;;;;;;;;;;4977848;28;20867;-79
2022/03/27 13:16:51;;;;;;;11.60;6.05;;;;;;;;;;4948287;28;20611;-79
2022/03/27 13:19:20;;;;;;;10.73;5.78;;;;;;;;;;4991061;28;20045;-78
2022/03/27 13:21:58;;;;;;;13.60;6.40;;;;;;;;;;4982040;28;20735;-80
2022/03/27 13:24:34;;;;;;;16.50;7.32;;;;;;;;;;4988859;28;20038;-80
2022/03/27 13:27:04;;;;;;;14.73;6.15;;;;;;;;;;5000177;28;20574;-79
2022/03/27 13:29:33;;;;;;;12.15;6.18;;;;;;;;;;4980862;28;20069;-77
2022/03/27 13:32:01;;;;;;;14.82;6.22;;;;;;;;;;4996614;28;20536;-78
2022/03/27 13:34:32;;;;;;;13.23;6.78;;;;;;;;;;4957604;28;20045;-77
2022/03/27 13:37:00;;;;;;;12.95;5.57;;;;;;;;;;5007000;28;20069;-82
2022/03/27 13:39:28;;;;;;;14.50;6.07;;;;;;;;;;5004096;28;20046;-82
2022/03/27 13:44:42;;;;;;;10.80;5.65;;;;;;;;;;4988323;28;20069;-79
2022/03/27 13:47:12;;;;;;;12.18;6.45;;;;;;;;;;4992552;28;20053;-77
2022/03/27 13:49:40;;;;;;;11.75;5.20;;;;;;;;;;5002162;28;20049;-76
2022/03/27 13:52:12;;;;;;;15.00;5.60;;;;;;;;;;5005843;28;20161;-79
2022/03/27 13:54:40;;;;;;;13.45;5.53;;;;;;;;;;4998463;28;22031;-77
2022/03/27 13:57:10;;;;;;;12.70;5.07;;;;;;;;;;4987899;28;21984;-78
2022/03/27 13:59:38;;;;;;;8.85;4.75;;;;;;;;;;4996616;28;20796;-78
2022/03/27 14:02:09;;;;;;;10.60;5.25;;;;;;;;;;5001582;28;20399;-81
2022/03/27 14:04:38;;;;;;;13.18;6.03;;;;;;;;;;5007894;28;20056;-80
2022/03/27 14:07:06;;;;;;;12.02;5.80;;;;;;;;;;5007705;28;20125;-81
2022/03/27 14:09:34;;;;;;;17.30;5.85;;;;;;;;;;4992388;28;20053;-82
2022/03/27 14:12:02;;;;;;;12.02;5.45;;;;;;;;;;4999079;28;20519;-81
2022/03/27 14:14:30;;;;;;;9.30;4.72;;;;;;;;;;5005174;28;20084;-81
2022/03/27 14:17:00;;;;;;;11.15;5.43;;;;;;;;;;4998253;28;20045;-80
2022/03/27 14:19:30;;;;;;;10.70;5.78;;;;;;;;;;4999626;28;20048;-81
2022/03/27 14:21:58;;;;;;;11.80;5.15;;;;;;;;;;4998674;28;20577;-80
2022/03/27 14:24:26;;;;;;;11.98;5.40;;;;;;;;;;4999893;28;20038;-79
2022/03/27 14:26:54;;;;;;;9.27;5.03;;;;;;;;;;4996301;28;20045;-80
2022/03/27 14:29:23;;;;;;;17.08;7.05;;;;;;;;;;4992977;28;20070;-81
2022/03/27 14:31:52;;;;;;;8.90;5.15;;;;;;;;;;5001919;28;20042;-80
2022/03/27 14:34:20;;;;;;;12.65;5.20;;;;;;;;;;4989221;28;20038;-80
2022/03/27 14:36:48;;;;;;;14.05;4.57;;;;;;;;;;5002439;28;20147;-80
2022/03/27 14:39:16;;;;;;;14.20;5.43;;;;;;;;;;4985538;28;20041;-80
2022/03/27 14:41:45;;;;;;;8.85;4.78;;;;;;;;;;4989333;28;20042;-80
2022/03/27 14:44:12;;;;;;;8.30;4.10;;;;;;;;;;4993060;28;20739;-81
2022/03/27 14:46:40;;;;;;;10.38;4.57;;;;;;;;;;5016793;28;20052;-81
2022/03/27 14:49:08;;;;;;;9.60;4.75;;;;;;;;;;5012867;28;20073;-81
2022/03/27 14:51:36;;;;;;;8.13;4.13;;;;;;;;;;5005248;28;20135;-80
2022/03/27 14:56:50;;;;;;;10.32;3.65;;;;;;;;;;5006055;28;20037;-80
2022/03/27 14:59:18;;;;;;;8.20;4.43;;;;;;;;;;4999441;28;20982;-78
2022/03/27 15:01:49;;;;;;;11.18;4.03;;;;;;;;;;4974283;28;20054;-79
2022/03/27 15:04:16;;;;;;;16.48;7.10;;;;;;;;;;4983810;28;20050;-79
2022/03/27 15:06:58;;;;;;;14.02;4.75;;;;;;;;;;4985163;28;20041;-80
2022/03/27 15:09:27;;;;;;;11.15;4.53;;;;;;;;;;5004694;28;20065;-81
2022/03/27 15:11:54;;;;;;;11.98;4.50;;;;;;;;;;4983838;28;20041;-79
2022/03/27 15:14:23;;;;;;;10.93;4.20;;;;;;;;;;5016874;28;20058;-80
2022/03/27 15:16:52;;;;;;;8.80;4.38;;;;;;;;;;5011672;28;20046;-79
2022/03/27 15:19:21;;;;;;;10.45;4.07;;;;;;;;;;5003601;28;20061;-80
2022/03/27 15:21:48;;;;;;;12.15;4.70;;;;;;;;;;5010045;28;20042;-80
2022/03/27 15:24:17;;;;;;;9.05;4.60;;;;;;;;;;5008917;28;20428;-80
2022/03/27 15:26:44;;;;;;;12.20;4.97;;;;;;;;;;5005796;28;20068;-80
2022/03/27 15:29:12;;;;;;;10.55;4.50;;;;;;;;;;4979674;28;20108;-81
2022/03/27 15:31:40;;;;;;;12.27;3.92;;;;;;;;;;5003121;28;20499;-78
2022/03/27 15:34:08;;;;;;;7.75;3.90;;;;;;;;;;5004070;28;20989;-80
2022/03/27 15:36:36;;;;;;;15.90;3.95;;;;;;;;;;5002187;28;20045;-79
2022/03/27 15:39:04;;;;;;;12.07;4.50;;;;;;;;;;5008396;28;20061;-80
2022/03/27 15:41:32;;;;;;;14.35;4.57;;;;;;;;;;4975697;28;20612;-80
2022/03/27 15:44:04;;;;;;;12.93;4.75;;;;;;;;;;4994591;28;20148;-81
2022/03/27 15:46:34;;;;;;;11.35;5.30;;;;;;;;;;5008761;28;20165;-79
2022/03/27 15:49:03;;;;;;;11.10;4.13;;;;;;;;;;4987700;28;20045;-79
2022/03/27 15:51:30;;;;;;;15.18;5.47;;;;;;;;;;5003584;28;20053;-80
2022/03/27 15:53:58;;;;;;;11.50;4.15;;;;;;;;;;4999132;28;20034;-80
2022/03/27 15:56:26;;;;;;;11.82;4.00;;;;;;;;;;4967214;28;20045;-81
2022/03/27 15:58:55;;;;;;;14.60;4.43;;;;;;;;;;5000101;28;20050;-81
2022/03/27 16:01:25;;;;;;;16.02;4.53;;;;;;;;;;5005920;28;20117;-82
2022/03/27 16:03:52;;;;;;;15.30;5.03;;;;;;;;;;5011628;28;20346;-81
2022/03/27 16:06:21;;;;;;;17.33;5.00;;;;;;;;;;5008773;28;20153;-82
2022/03/27 16:08:48;;;;;;;15.07;4.95;;;;;;;;;;5018768;28;20975;-81
2022/03/27 16:11:16;;;;;;;16.60;4.55;;;;;;;;;;5020364;28;20125;-81
2022/03/27 16:13:44;;;;;;;15.13;4.68;;;;;;;;;;5014967;28;20124;-81
2022/03/27 16:16:12;;;;;;;18.75;4.90;;;;;;;;;;5012369;28;20699;-81
2022/03/27 16:18:40;;;;;;;20.75;5.05;;;;;;;;;;5015492;28;20053;-80
2022/03/27 16:21:08;;;;;;;20.05;5.18;;;;;;;;;;5015004;28;20041;-81
2022/03/27 16:23:36;;;;;;;15.38;4.78;;;;;;;;;;4993419;28;20069;-80
2022/03/27 16:26:10;;;;;;;19.77;4.75;;;;;;;;;;5013332;28;20664;-81
2022/03/27 16:28:38;;;;;;;15.80;4.85;;;;;;;;;;5004025;28;20050;-81
2022/03/27 16:31:07;;;;;;;24.08;6.22;;;;;;;;;;5017953;28;20065;-81
2022/03/27 16:33:35;;;;;;;19.08;4.93;;;;;;;;;;5005417;28;20049;-80
2022/03/27 16:36:04;;;;;;;20.83;5.43;;;;;;;;;;5027452;28;20060;-80
2022/03/27 16:38:33;;;;;;;22.38;5.82;;;;;;;;;;5011012;28;20068;-81
2022/03/27 16:41:01;;;;;;;16.35;5.82;;;;;;;;;;4998771;28;20041;-81
2022/03/27 16:43:37;;;;;;;22.35;6.05;;;;;;;;;;5009934;28;20046;-81
2022/03/27 16:46:05;;;;;;;20.45;5.53;;;;;;;;;;5010119;28;20038;-80
2022/03/27 16:48:35;;;;;;;17.30;5.28;;;;;;;;;;5025088;28;20696;-81
2022/03/27 16:51:05;;;;;;;24.33;5.03;;;;;;;;;;5009041;28;20148;-81
2022/03/27 16:53:34;;;;;;;29.20;5.78;;;;;;;;;;5007797;28;20483;-81
2022/03/27 16:56:03;;;;;;;22.20;4.75;;;;;;;;;;5008994;28;20146;-77
2022/03/27 16:58:30;;;;;;;14.00;3.88;;;;;;;;;;5007119;28;20048;-78
2022/03/27 17:00:58;;;;;;;15.95;3.25;;;;;;;;;;4993194;28;20100;-79